Terminal Aerodrome Forecast
Issued by NWS

Home | Current Version | Previous Version | Text Only | Print | Product List | Glossary On
Versions: 1 2 3 4 5 6 7 8 9 10 11 12 13
000
FTUS44 KSJT 112300
TAFSOA
TAF
KSOA 112320Z 1200/1224 15010G20KT P6SM SCT060
     FM120200 15007KT P6SM SCT150
     FM121600 18012G22KT P6SM SCT050=

USA.gov is the U.S. government's official web portal to all federal, state and local government web resources and services.